Time;durP1;ratioP1;P1;durP2;ratioP2;P2;SDS_P1;SDS_P2;PMS_P1;PMS_P2;Temp;Humidity;BMP_temperature;BMP_pressure;BME280_temperature;BME280_humidity;BME280_pressure;Samples;Min_cycle;Max_cycle;Signal;HPM_P1;HPM_P2
2023/10/31 00:01:14;;;;;;;0.50;0.50;;;12.80;99.90;;;;;;4970968;28;20155;-48
2023/10/31 00:03:42;;;;;;;1.05;0.95;;;12.80;99.90;;;;;;4970888;28;20505;-48
2023/10/31 00:06:08;;;;;;;1.63;1.52;;;12.80;99.90;;;;;;4970878;28;20106;-49
2023/10/31 00:08:33;;;;;;;1.30;1.20;;;12.80;99.90;;;;;;4970522;28;20367;-49
2023/10/31 00:10:58;;;;;;;2.13;0.50;;;12.80;99.90;;;;;;4970779;28;20033;-47
2023/10/31 00:13:24;;;;;;;1.17;0.40;;;12.70;99.90;;;;;;4970766;28;20023;-50
2023/10/31 00:15:49;;;;;;;1.15;0.50;;;12.70;99.90;;;;;;4969643;28;20038;-47
2023/10/31 00:18:15;;;;;;;1.40;0.60;;;12.70;99.90;;;;;;4970701;28;20019;-47
2023/10/31 00:20:40;;;;;;;0.60;0.60;;;12.70;99.90;;;;;;4970696;28;20026;-48
2023/10/31 00:23:06;;;;;;;0.82;0.47;;;12.60;99.90;;;;;;4969454;28;20048;-52
2023/10/31 00:25:31;;;;;;;0.50;0.40;;;12.60;99.90;;;;;;4970650;28;20073;-48
2023/10/31 00:27:57;;;;;;;3.13;0.80;;;12.60;99.90;;;;;;4970551;28;20038;-50
2023/10/31 00:30:22;;;;;;;1.85;0.47;;;12.50;99.90;;;;;;4970244;28;20038;-47
2023/10/31 00:32:49;;;;;;;0.80;0.80;;;12.50;99.90;;;;;;4970533;28;20058;-49
2023/10/31 00:35:14;;;;;;;2.45;0.50;;;12.40;99.90;;;;;;4970545;28;20403;-49
2023/10/31 00:37:40;;;;;;;0.60;0.60;;;12.40;99.90;;;;;;4970515;28;20030;-51
2023/10/31 00:40:07;;;;;;;0.85;0.70;;;12.40;99.90;;;;;;4970137;28;20018;-49
2023/10/31 00:42:32;;;;;;;1.27;0.77;;;12.40;99.90;;;;;;4970276;28;20448;-49
2023/10/31 00:44:59;;;;;;;0.68;0.40;;;12.30;99.90;;;;;;4970285;28;20023;-47
2023/10/31 00:47:24;;;;;;;0.47;0.40;;;12.30;99.90;;;;;;4970278;28;20027;-50
2023/10/31 00:49:50;;;;;;;1.30;0.40;;;12.40;99.90;;;;;;4969851;28;20091;-50
2023/10/31 00:52:15;;;;;;;3.10;0.50;;;12.30;99.90;;;;;;4970154;28;20035;-48
2023/10/31 00:54:42;;;;;;;0.40;0.40;;;12.30;99.90;;;;;;4970068;28;20494;-52
2023/10/31 00:57:07;;;;;;;0.65;0.63;;;12.30;99.90;;;;;;4969830;28;20019;-48
2023/10/31 00:59:32;;;;;;;0.50;0.50;;;12.30;99.90;;;;;;4970012;28;20071;-49
2023/10/31 01:01:58;;;;;;;1.58;0.73;;;12.30;99.90;;;;;;4968814;28;20031;-49
2023/10/31 01:04:25;;;;;;;0.70;0.70;;;12.30;99.90;;;;;;4970056;28;20030;-48
2023/10/31 01:06:51;;;;;;;0.50;0.50;;;12.20;99.90;;;;;;4969924;28;20038;-47
2023/10/31 01:09:16;;;;;;;1.77;0.40;;;12.20;99.90;;;;;;4969731;28;20038;-50
2023/10/31 01:11:42;;;;;;;1.60;0.57;;;12.10;99.90;;;;;;4969938;28;20023;-47
2023/10/31 01:14:07;;;;;;;0.60;0.60;;;12.10;99.90;;;;;;4971041;28;20108;-50
2023/10/31 01:16:33;;;;;;;0.50;0.50;;;12.10;99.90;;;;;;4971203;28;20027;-51
2023/10/31 01:18:58;;;;;;;0.63;0.40;;;12.10;99.90;;;;;;4970926;28;20031;-47
2023/10/31 01:21:24;;;;;;;0.40;0.40;;;12.00;99.90;;;;;;4970439;28;20056;-50
2023/10/31 01:23:49;;;;;;;0.98;0.65;;;12.00;99.90;;;;;;4970702;28;20061;-49
2023/10/31 01:26:15;;;;;;;1.88;0.43;;;12.00;99.90;;;;;;4970015;28;20062;-49
2023/10/31 01:28:40;;;;;;;0.88;0.40;;;11.90;99.90;;;;;;4969633;28;20035;-47
2023/10/31 01:31:06;;;;;;;1.80;0.50;;;11.90;99.90;;;;;;5071454;28;20036;-50
2023/10/31 01:33:31;;;;;;;1.65;0.82;;;11.90;99.90;;;;;;5090096;28;20028;-51
2023/10/31 01:35:57;;;;;;;9.07;0.68;;;11.90;99.90;;;;;;5091277;28;20122;-48
2023/10/31 01:38:23;;;;;;;0.85;0.50;;;11.80;99.90;;;;;;5091178;28;20035;-48
2023/10/31 01:40:50;;;;;;;0.55;0.55;;;11.80;99.90;;;;;;5091305;28;20020;-48
2023/10/31 01:43:30;;;;;;;0.40;0.40;;;11.80;99.90;;;;;;5091370;28;20030;-48
2023/10/31 01:45:55;;;;;;;0.75;0.40;;;11.80;99.90;;;;;;5091269;28;20031;-49
2023/10/31 01:48:20;;;;;;;0.77;0.50;;;11.90;99.90;;;;;;5091023;28;20395;-47
2023/10/31 01:50:46;;;;;;;3.35;0.50;;;11.90;99.90;;;;;;5091236;28;20164;-49
2023/10/31 01:53:12;;;;;;;3.03;0.43;;;11.90;99.90;;;;;;5091253;28;20149;-50
2023/10/31 01:55:37;;;;;;;1.38;0.70;;;11.90;99.90;;;;;;5089785;28;20035;-48
2023/10/31 01:58:03;;;;;;;1.15;0.80;;;11.90;99.90;;;;;;5091059;28;20046;-43
2023/10/31 02:00:29;;;;;;;0.35;0.35;;;11.90;99.90;;;;;;5090976;28;20539;-51
2023/10/31 02:02:55;;;;;;;4.10;0.50;;;11.80;99.90;;;;;;5089915;28;20020;-50
2023/10/31 02:05:21;;;;;;;0.88;0.43;;;11.80;99.90;;;;;;5091001;28;20024;-50
2023/10/31 02:07:46;;;;;;;4.43;0.60;;;11.70;99.90;;;;;;5091907;28;20164;-48
2023/10/31 02:10:12;;;;;;;0.40;0.40;;;11.70;99.90;;;;;;5094483;28;20032;-48
2023/10/31 02:12:37;;;;;;;0.45;0.43;;;11.60;99.90;;;;;;5094875;28;20058;-49
2023/10/31 02:15:04;;;;;;;1.10;0.60;;;11.60;99.90;;;;;;5094716;28;20410;-49
2023/10/31 02:17:30;;;;;;;0.50;0.50;;;11.50;99.90;;;;;;5095195;28;20450;-48
2023/10/31 02:19:55;;;;;;;0.52;0.52;;;11.50;99.90;;;;;;5094398;28;20024;-50
2023/10/31 02:22:22;;;;;;;1.33;0.52;;;11.50;99.90;;;;;;5094725;28;20031;-50
2023/10/31 02:24:48;;;;;;;3.42;0.57;;;11.50;99.90;;;;;;5094524;28;20116;-47
2023/10/31 02:27:13;;;;;;;1.55;0.43;;;11.40;99.90;;;;;;5094701;28;20484;-48
2023/10/31 02:29:40;;;;;;;0.88;0.60;;;11.40;99.90;;;;;;5094190;28;20020;-47
2023/10/31 02:32:05;;;;;;;4.47;0.75;;;11.40;99.90;;;;;;5094526;28;20020;-47
2023/10/31 02:34:31;;;;;;;0.82;0.57;;;11.30;99.90;;;;;;5094752;28;20329;-47
2023/10/31 02:36:56;;;;;;;0.95;0.40;;;11.30;99.90;;;;;;5094494;28;20016;-49
2023/10/31 02:39:22;;;;;;;0.32;0.32;;;11.30;99.90;;;;;;5094274;28;20134;-49
2023/10/31 02:41:47;;;;;;;3.60;0.80;;;11.20;99.90;;;;;;5094263;28;20028;-49
2023/10/31 02:44:15;;;;;;;3.10;0.60;;;11.10;99.90;;;;;;5094079;28;20498;-51
2023/10/31 02:46:40;;;;;;;0.70;0.60;;;11.00;99.90;;;;;;5094190;28;20036;-48
2023/10/31 02:49:06;;;;;;;2.30;0.85;;;10.90;99.90;;;;;;5093895;28;20110;-49
2023/10/31 02:51:31;;;;;;;1.27;0.82;;;10.90;99.90;;;;;;5094539;28;20416;-49
2023/10/31 02:53:57;;;;;;;1.85;1.65;;;10.90;99.90;;;;;;5093935;28;20085;-48
2023/10/31 02:56:23;;;;;;;0.77;0.63;;;10.90;99.90;;;;;;5094047;28;20376;-49
2023/10/31 02:58:48;;;;;;;0.75;0.60;;;10.90;99.90;;;;;;5093807;28;20094;-50
2023/10/31 03:01:14;;;;;;;0.85;0.80;;;10.90;99.90;;;;;;5094249;28;20024;-51
2023/10/31 03:03:39;;;;;;;4.03;0.98;;;10.90;99.90;;;;;;5094619;28;20025;-49
2023/10/31 03:06:05;;;;;;;3.53;1.30;;;10.90;99.90;;;;;;5095112;28;20032;-47
2023/10/31 03:08:31;;;;;;;2.58;0.90;;;11.00;99.90;;;;;;5095078;28;20028;-48
2023/10/31 03:10:56;;;;;;;0.77;0.75;;;11.00;99.90;;;;;;5094419;28;20032;-47
2023/10/31 03:13:23;;;;;;;0.85;0.70;;;11.00;99.90;;;;;;5094463;28;20024;-49
2023/10/31 03:15:48;;;;;;;0.93;0.63;;;11.00;99.90;;;;;;5093897;28;20016;-47
2023/10/31 03:18:17;;;;;;;1.33;0.82;;;11.00;99.90;;;;;;5093735;28;20016;-47
2023/10/31 03:20:48;;;;;;;0.80;0.80;;;11.00;99.90;;;;;;5092199;28;20406;-49
2023/10/31 03:23:14;;;;;;;2.40;0.70;;;11.10;99.90;;;;;;5093665;28;20038;-48
2023/10/31 03:25:40;;;;;;;1.85;0.60;;;11.00;99.90;;;;;;5093471;28;20392;-49
2023/10/31 03:28:17;;;;;;;3.55;0.80;;;11.00;99.90;;;;;;5093414;28;20078;-48
2023/10/31 03:30:42;;;;;;;2.28;0.70;;;11.00;99.90;;;;;;5093249;28;20049;-50
2023/10/31 03:33:08;;;;;;;1.95;1.42;;;11.00;99.90;;;;;;5093366;28;20141;-50
2023/10/31 03:35:33;;;;;;;2.10;0.80;;;11.00;99.90;;;;;;5093119;28;20102;-50
2023/10/31 03:37:59;;;;;;;0.65;0.60;;;11.00;99.90;;;;;;5093246;28;20024;-50
2023/10/31 03:40:24;;;;;;;1.25;0.93;;;10.90;99.90;;;;;;5092943;28;20023;-50
2023/10/31 03:42:50;;;;;;;0.80;0.80;;;11.00;99.90;;;;;;5093134;28;20124;-51
2023/10/31 03:45:15;;;;;;;2.40;0.60;;;11.00;99.90;;;;;;5093005;28;20023;-47
2023/10/31 03:47:41;;;;;;;1.48;0.95;;;10.90;99.90;;;;;;5093207;28;20039;-47
2023/10/31 03:50:08;;;;;;;0.95;0.80;;;10.90;99.90;;;;;;5092594;28;20047;-50
2023/10/31 03:52:33;;;;;;;0.65;0.65;;;10.90;99.90;;;;;;5093005;28;20036;-48
2023/10/31 03:54:59;;;;;;;0.60;0.60;;;10.90;99.90;;;;;;5092884;28;20475;-51
2023/10/31 03:57:24;;;;;;;0.63;0.63;;;10.90;99.90;;;;;;5092980;28;20024;-51
2023/10/31 03:59:50;;;;;;;0.55;0.52;;;10.90;99.90;;;;;;5092891;28;20554;-53
2023/10/31 04:02:15;;;;;;;0.73;0.73;;;10.90;99.90;;;;;;5092991;28;20032;-50
2023/10/31 04:04:41;;;;;;;0.90;0.90;;;10.90;99.90;;;;;;5092725;28;20030;-50
2023/10/31 04:07:06;;;;;;;1.20;1.05;;;10.90;99.90;;;;;;5092726;28;20093;-49
2023/10/31 04:09:32;;;;;;;0.70;0.70;;;10.90;99.90;;;;;;5092408;28;20507;-48
2023/10/31 04:11:57;;;;;;;1.23;1.00;;;11.00;99.90;;;;;;5092543;28;20063;-48
2023/10/31 04:14:23;;;;;;;0.90;0.90;;;11.10;99.90;;;;;;5092551;28;20028;-53
2023/10/31 04:16:48;;;;;;;0.98;0.98;;;11.10;99.90;;;;;;5092382;28;20544;-48
2023/10/31 04:19:14;;;;;;;1.38;0.90;;;11.10;99.90;;;;;;5092096;28;20505;-47
2023/10/31 04:21:39;;;;;;;1.25;0.85;;;11.10;99.90;;;;;;5092388;28;20028;-47
2023/10/31 04:24:05;;;;;;;2.08;0.90;;;11.10;99.90;;;;;;5090934;28;20024;-47
2023/10/31 04:26:31;;;;;;;1.00;1.00;;;11.10;99.90;;;;;;5092220;28;20403;-48
2023/10/31 04:28:56;;;;;;;1.08;0.80;;;11.10;99.90;;;;;;5092023;28;20039;-47
2023/10/31 04:31:22;;;;;;;5.65;1.10;;;11.10;99.90;;;;;;5091815;28;20410;-49
2023/10/31 04:33:47;;;;;;;1.98;0.95;;;11.10;99.90;;;;;;5090654;28;20020;-46
2023/10/31 04:36:13;;;;;;;3.28;0.88;;;11.20;99.90;;;;;;5092122;28;20051;-49
2023/10/31 04:38:38;;;;;;;0.70;0.70;;;11.20;99.90;;;;;;5091897;28;20476;-48
2023/10/31 04:41:04;;;;;;;3.90;0.80;;;11.30;99.90;;;;;;5092020;28;20038;-47
2023/10/31 04:43:29;;;;;;;2.35;0.98;;;11.30;99.90;;;;;;5092245;28;20028;-48
2023/10/31 04:45:55;;;;;;;2.40;0.88;;;11.40;99.90;;;;;;5091963;28;20077;-48
2023/10/31 04:48:21;;;;;;;2.47;1.10;;;11.40;99.90;;;;;;5091509;28;20023;-51
2023/10/31 04:50:46;;;;;;;0.90;0.90;;;11.40;99.90;;;;;;5092024;28;20070;-47
2023/10/31 04:53:12;;;;;;;1.80;0.85;;;11.50;99.90;;;;;;5091871;28;20086;-47
2023/10/31 04:55:37;;;;;;;1.77;0.90;;;11.50;99.90;;;;;;5092051;28;20063;-49
2023/10/31 04:58:02;;;;;;;1.08;0.93;;;11.50;99.90;;;;;;5091760;28;20418;-46
2023/10/31 05:00:28;;;;;;;0.98;0.63;;;11.50;99.90;;;;;;5091894;28;20028;-48
2023/10/31 05:02:53;;;;;;;0.82;0.82;;;11.50;99.90;;;;;;5091685;28;20365;-47
2023/10/31 05:05:19;;;;;;;8.13;0.80;;;11.50;99.90;;;;;;5091604;28;20059;-50
2023/10/31 05:07:45;;;;;;;1.17;1.00;;;11.50;99.90;;;;;;5091838;28;20032;-47
2023/10/31 05:10:10;;;;;;;1.20;0.80;;;11.60;99.90;;;;;;5090579;28;20038;-48
2023/10/31 05:12:36;;;;;;;3.22;0.80;;;11.60;99.90;;;;;;5011289;22;20050;-45
2023/10/31 05:15:02;;;;;;;2.22;0.80;;;11.70;99.90;;;;;;4969884;28;20027;-40
2023/10/31 05:17:28;;;;;;;1.27;1.20;;;11.70;99.90;;;;;;4968901;28;20038;-46
2023/10/31 05:19:53;;;;;;;3.30;1.27;;;11.70;99.90;;;;;;4970279;28;20077;-44
2023/10/31 05:22:19;;;;;;;7.53;1.00;;;11.70;99.90;;;;;;4971058;28;20073;-46
2023/10/31 05:24:44;;;;;;;2.45;0.65;;;11.70;99.90;;;;;;4970778;28;20035;-46
2023/10/31 05:27:10;;;;;;;2.63;1.00;;;11.60;99.90;;;;;;4971096;28;20400;-48
2023/10/31 05:29:38;;;;;;;0.60;0.60;;;11.60;99.90;;;;;;4970127;28;20023;-47
2023/10/31 05:32:03;;;;;;;1.75;1.10;;;11.60;99.90;;;;;;4969839;28;20030;-47
2023/10/31 05:34:29;;;;;;;2.55;1.10;;;11.60;99.90;;;;;;4968788;28;20084;-46
2023/10/31 05:36:54;;;;;;;4.10;0.93;;;11.50;99.90;;;;;;4969951;28;20022;-47
2023/10/31 05:39:20;;;;;;;0.70;0.70;;;11.50;99.90;;;;;;4969714;28;20038;-44
2023/10/31 05:41:45;;;;;;;1.52;1.00;;;11.50;99.90;;;;;;4968580;28;20080;-49
2023/10/31 05:44:11;;;;;;;1.33;1.23;;;11.50;99.90;;;;;;4972389;28;20043;-46
2023/10/31 05:46:40;;;;;;;0.82;0.82;;;11.50;99.90;;;;;;4973478;28;20398;-46
2023/10/31 05:49:08;;;;;;;1.23;1.00;;;11.60;99.90;;;;;;4973105;28;20027;-44
2023/10/31 05:51:35;;;;;;;4.93;0.98;;;11.60;99.90;;;;;;4972996;28;20066;-44
2023/10/31 05:54:01;;;;;;;3.17;0.85;;;11.50;99.90;;;;;;4973178;28;20019;-45
2023/10/31 05:56:26;;;;;;;1.05;0.80;;;11.60;99.90;;;;;;4973192;28;20023;-46
2023/10/31 05:58:52;;;;;;;3.95;1.10;;;11.60;99.90;;;;;;4974435;28;20023;-41
2023/10/31 06:01:17;;;;;;;0.70;0.70;;;11.60;99.90;;;;;;4974608;28;20061;-43
2023/10/31 06:03:44;;;;;;;0.90;0.70;;;11.60;99.90;;;;;;4974964;28;20047;-47
2023/10/31 06:06:10;;;;;;;2.70;1.02;;;11.50;99.90;;;;;;4974377;28;20030;-46
2023/10/31 06:08:35;;;;;;;2.92;0.65;;;11.50;99.90;;;;;;4973712;28;20482;-44
2023/10/31 06:11:01;;;;;;;1.48;0.75;;;11.50;99.90;;;;;;4972567;28;20111;-45
2023/10/31 06:13:27;;;;;;;1.67;0.90;;;11.50;99.90;;;;;;4972468;28;20053;-46
2023/10/31 06:15:54;;;;;;;0.65;0.63;;;11.50;99.90;;;;;;4972915;28;20023;-46
2023/10/31 06:18:20;;;;;;;1.75;0.65;;;11.50;99.90;;;;;;4972476;28;20390;-46
2023/10/31 06:20:45;;;;;;;0.80;0.80;;;11.50;99.90;;;;;;4971533;28;20031;-44
2023/10/31 06:23:11;;;;;;;1.13;0.70;;;11.50;99.90;;;;;;4972574;28;20031;-45
2023/10/31 06:25:36;;;;;;;2.63;0.70;;;11.50;99.90;;;;;;4972483;28;20042;-49
2023/10/31 06:28:02;;;;;;;3.72;0.73;;;11.50;99.90;;;;;;4972466;28;20464;-45
2023/10/31 06:30:27;;;;;;;6.30;0.98;;;11.50;99.90;;;;;;4972160;28;20026;-44
2023/10/31 06:32:53;;;;;;;0.60;0.50;;;11.40;99.90;;;;;;4972420;28;20027;-48
2023/10/31 06:35:19;;;;;;;0.90;0.80;;;11.40;99.90;;;;;;4970864;28;20033;-44
2023/10/31 06:37:44;;;;;;;1.13;0.60;;;11.40;99.90;;;;;;4972288;28;20447;-45
2023/10/31 06:40:10;;;;;;;1.40;1.10;;;11.50;99.90;;;;;;4968488;28;20043;-46
2023/10/31 06:42:36;;;;;;;1.95;1.13;;;11.50;99.90;;;;;;4971880;28;20027;-47
2023/10/31 06:45:02;;;;;;;2.88;0.60;;;11.50;99.90;;;;;;4966743;28;20396;-45
2023/10/31 06:47:28;;;;;;;1.35;0.65;;;11.50;99.90;;;;;;4961653;28;20027;-47
2023/10/31 06:49:53;;;;;;;1.25;0.75;;;11.50;99.90;;;;;;4952646;28;20037;-49
2023/10/31 06:52:19;;;;;;;0.60;0.60;;;11.50;99.90;;;;;;4952692;28;20024;-48
2023/10/31 06:54:44;;;;;;;1.83;0.73;;;11.50;99.90;;;;;;4952647;28;20059;-46
2023/10/31 06:57:10;;;;;;;1.63;0.80;;;11.60;99.90;;;;;;4952481;28;20020;-42
2023/10/31 06:59:35;;;;;;;0.73;0.50;;;11.60;99.90;;;;;;4952503;28;20027;-45
2023/10/31 07:02:01;;;;;;;2.55;0.68;;;11.50;99.90;;;;;;4958006;28;20557;-47
2023/10/31 07:04:26;;;;;;;3.40;0.75;;;11.50;99.90;;;;;;4971770;28;20035;-50
2023/10/31 07:06:56;;;;;;;9.45;0.60;;;11.40;99.90;;;;;;4971592;28;20419;-49
2023/10/31 07:09:23;;;;;;;0.50;0.50;;;11.40;99.90;;;;;;4952225;29;20023;-49
2023/10/31 07:11:48;;;;;;;3.40;0.82;;;11.40;99.90;;;;;;4953390;28;20417;-45
2023/10/31 07:14:14;;;;;;;0.50;0.50;;;11.40;99.90;;;;;;4973563;28;20022;-44
2023/10/31 07:16:40;;;;;;;2.53;0.60;;;11.40;99.90;;;;;;4972926;28;20031;-49
2023/10/31 07:19:05;;;;;;;0.98;0.60;;;11.50;99.90;;;;;;4971275;28;20362;-45
2023/10/31 07:21:30;;;;;;;0.50;0.50;;;11.40;99.90;;;;;;4971689;28;20117;-48
2023/10/31 07:23:56;;;;;;;0.52;0.52;;;11.50;99.90;;;;;;4970478;28;20027;-43
2023/10/31 07:26:22;;;;;;;2.60;0.50;;;11.40;99.90;;;;;;4971684;28;20041;-46
2023/10/31 07:28:48;;;;;;;2.17;0.68;;;11.50;99.90;;;;;;4971456;28;20023;-45
2023/10/31 07:31:14;;;;;;;0.80;0.70;;;11.50;99.90;;;;;;4971372;28;20057;-46
2023/10/31 07:33:40;;;;;;;1.92;0.80;;;11.50;99.90;;;;;;4968561;28;20024;-47
2023/10/31 07:36:06;;;;;;;1.00;0.63;;;11.50;99.90;;;;;;4956170;28;20030;-48
2023/10/31 07:38:31;;;;;;;0.77;0.77;;;11.50;99.90;;;;;;4952162;28;20023;-49
2023/10/31 07:40:56;;;;;;;0.68;0.50;;;11.40;99.90;;;;;;4951130;28;20503;-45
2023/10/31 07:43:22;;;;;;;0.80;0.70;;;11.40;99.90;;;;;;4952061;28;20115;-45
2023/10/31 07:45:47;;;;;;;1.65;0.77;;;11.40;99.90;;;;;;4952051;28;20023;-47
2023/10/31 07:48:13;;;;;;;1.55;0.98;;;11.40;99.90;;;;;;4958665;28;20035;-51
2023/10/31 07:50:38;;;;;;;0.60;0.50;;;11.50;99.90;;;;;;4970333;28;20118;-45
2023/10/31 07:53:04;;;;;;;0.30;0.30;;;11.50;99.90;;;;;;4971581;28;20034;-46
2023/10/31 07:55:30;;;;;;;2.67;0.63;;;11.50;99.90;;;;;;4969489;28;20358;-58
2023/10/31 07:57:55;;;;;;;6.72;1.20;;;11.50;99.90;;;;;;4969840;28;20023;-49
2023/10/31 08:00:21;;;;;;;0.90;0.80;;;11.50;99.90;;;;;;4969868;28;20023;-49
2023/10/31 08:02:47;;;;;;;0.77;0.70;;;11.50;99.90;;;;;;4972439;28;20019;-47
2023/10/31 08:05:14;;;;;;;0.60;0.60;;;11.50;99.90;;;;;;4970343;28;20426;-61
2023/10/31 08:07:39;;;;;;;2.22;1.00;;;11.50;99.90;;;;;;4971006;28;20023;-50
2023/10/31 08:10:05;;;;;;;2.15;0.70;;;11.60;99.90;;;;;;4970469;28;20030;-41
2023/10/31 08:12:31;;;;;;;3.97;0.85;;;11.60;99.90;;;;;;4970596;28;20030;-44
2023/10/31 08:14:58;;;;;;;2.58;1.63;;;11.70;99.90;;;;;;4970804;28;20029;-42
2023/10/31 08:17:24;;;;;;;2.47;0.73;;;11.60;99.90;;;;;;4968014;28;20023;-45
2023/10/31 08:19:49;;;;;;;0.70;0.70;;;11.70;99.90;;;;;;4970439;28;20026;-43
2023/10/31 08:22:15;;;;;;;1.40;0.77;;;11.80;99.90;;;;;;4969327;28;20031;-45
2023/10/31 08:24:40;;;;;;;0.70;0.70;;;11.80;99.90;;;;;;4970652;28;20042;-45
2023/10/31 08:27:06;;;;;;;1.35;0.77;;;11.80;99.90;;;;;;4969155;28;20069;-43
2023/10/31 08:29:32;;;;;;;0.80;0.70;;;11.90;99.90;;;;;;4970610;28;20053;-46
2023/10/31 08:31:57;;;;;;;0.75;0.68;;;12.00;99.90;;;;;;4967805;28;20031;-46
2023/10/31 08:34:23;;;;;;;1.75;1.00;;;12.00;99.90;;;;;;4970882;28;20443;-45
2023/10/31 08:36:48;;;;;;;1.60;0.60;;;12.00;99.90;;;;;;4969695;28;20113;-46
2023/10/31 08:39:14;;;;;;;0.50;0.50;;;12.10;99.90;;;;;;4969488;28;20027;-49
2023/10/31 08:41:53;;;;;;;0.60;0.60;;;12.20;99.90;;;;;;4967873;28;20039;-47
2023/10/31 08:44:19;;;;;;;1.00;0.85;;;12.30;99.90;;;;;;4967028;28;20035;-46
2023/10/31 08:46:44;;;;;;;1.45;1.13;;;12.30;99.90;;;;;;4970172;28;20135;-43
2023/10/31 08:49:10;;;;;;;1.95;0.60;;;12.30;99.90;;;;;;4970026;28;20101;-48
2023/10/31 08:51:35;;;;;;;2.67;0.90;;;12.40;99.90;;;;;;4968288;28;20053;-54
2023/10/31 08:54:01;;;;;;;1.38;0.68;;;12.40;99.90;;;;;;4966959;28;20506;-48
2023/10/31 08:56:27;;;;;;;1.63;0.98;;;12.50;99.90;;;;;;5011609;28;20021;-47
2023/10/31 08:58:53;;;;;;;1.20;0.75;;;12.50;99.90;;;;;;5066548;28;20099;-52
2023/10/31 09:01:19;;;;;;;0.93;0.60;;;12.50;99.90;;;;;;4969786;28;20134;-58
2023/10/31 09:03:44;;;;;;;1.13;0.82;;;12.50;99.90;;;;;;4970491;28;20023;-55
2023/10/31 09:06:10;;;;;;;86.03;49.13;;;12.50;99.90;;;;;;4969276;28;20490;-51
2023/10/31 09:08:38;;;;;;;11.95;8.63;;;12.50;99.90;;;;;;4965922;28;20234;-46
2023/10/31 09:11:07;;;;;;;5.88;3.70;;;12.50;99.90;;;;;;4969380;28;20460;-50
2023/10/31 09:13:32;;;;;;;0.50;0.50;;;12.50;99.90;;;;;;4972141;28;20037;-55
2023/10/31 09:15:59;;;;;;;3.60;0.93;;;12.60;99.90;;;;;;4984902;28;20026;-55
2023/10/31 09:18:24;;;;;;;1.40;0.82;;;12.60;99.90;;;;;;4976454;28;20510;-52
2023/10/31 09:20:50;;;;;;;1.77;0.60;;;12.60;99.90;;;;;;4980013;28;20129;-53
2023/10/31 09:23:17;;;;;;;1.95;0.60;;;12.70;99.90;;;;;;4967149;28;20391;-45
2023/10/31 09:25:45;;;;;;;0.70;0.70;;;12.70;99.90;;;;;;4975726;28;20037;-51
2023/10/31 09:28:11;;;;;;;6.53;0.77;;;12.70;99.90;;;;;;4979224;28;20098;-58
2023/10/31 09:30:36;;;;;;;1.60;0.77;;;12.80;99.90;;;;;;4968607;28;20430;-52
2023/10/31 09:33:02;;;;;;;2.95;0.70;;;12.80;99.90;;;;;;4977393;28;20022;-54
2023/10/31 09:35:28;;;;;;;1.17;0.60;;;12.80;99.90;;;;;;4988838;28;20015;-53
2023/10/31 09:37:54;;;;;;;0.82;0.70;;;12.80;99.90;;;;;;4989295;28;20030;-54
2023/10/31 09:40:20;;;;;;;1.35;0.52;;;12.80;99.90;;;;;;4986351;28;20045;-51
2023/10/31 09:42:46;;;;;;;2.28;0.88;;;12.80;99.90;;;;;;4968881;28;20063;-46
2023/10/31 09:45:13;;;;;;;0.80;0.73;;;12.80;99.90;;;;;;4968252;28;20490;-46
2023/10/31 09:47:39;;;;;;;1.52;0.63;;;12.80;99.90;;;;;;4966677;28;20035;-49
2023/10/31 09:50:06;;;;;;;1.45;0.68;;;12.90;99.90;;;;;;4968851;28;20106;-52
2023/10/31 09:52:32;;;;;;;1.10;0.60;;;12.90;99.90;;;;;;4972369;28;20026;-54
2023/10/31 09:54:58;;;;;;;2.47;0.55;;;12.90;99.90;;;;;;4981562;28;20030;-54
2023/10/31 09:57:26;;;;;;;2.25;1.10;;;12.80;99.90;;;;;;4987215;28;20034;-55
2023/10/31 09:59:52;;;;;;;11.13;2.20;;;12.90;99.90;;;;;;4970670;28;20023;-53
2023/10/31 10:02:17;;;;;;;0.82;0.60;;;12.90;99.90;;;;;;4972437;28;20031;-54
2023/10/31 10:04:43;;;;;;;1.08;0.70;;;12.90;99.90;;;;;;4968215;28;20046;-55
2023/10/31 10:07:09;;;;;;;6.85;0.70;;;12.90;99.90;;;;;;4967977;28;20030;-52
2023/10/31 10:09:34;;;;;;;2.15;0.80;;;13.00;99.90;;;;;;4968362;28;20053;-57
2023/10/31 10:12:01;;;;;;;2.10;0.70;;;13.00;99.90;;;;;;4988478;28;20035;-52
2023/10/31 10:14:33;;;;;;;2.65;1.38;;;13.00;99.90;;;;;;4980520;28;20467;-54
2023/10/31 10:16:59;;;;;;;0.70;0.70;;;13.00;99.90;;;;;;4988628;28;20036;-54
2023/10/31 10:19:25;;;;;;;3.60;0.90;;;13.20;99.90;;;;;;4988659;28;20022;-50
2023/10/31 10:21:58;;;;;;;2.13;0.90;;;13.20;99.90;;;;;;4988412;28;20027;-52
2023/10/31 10:24:24;;;;;;;1.25;0.60;;;13.30;99.90;;;;;;4985617;28;20134;-54
2023/10/31 10:26:51;;;;;;;2.00;0.77;;;13.40;99.90;;;;;;4977163;28;20019;-56
2023/10/31 10:29:17;;;;;;;3.13;0.65;;;13.40;99.90;;;;;;4970032;28;20038;-55
2023/10/31 10:31:44;;;;;;;1.33;0.73;;;13.50;99.90;;;;;;4974801;28;20033;-55
2023/10/31 10:34:12;;;;;;;0.73;0.52;;;13.60;99.90;;;;;;4953024;28;20031;-55
2023/10/31 10:36:38;;;;;;;2.67;0.90;;;13.70;99.90;;;;;;4961171;28;20106;-52
2023/10/31 10:39:06;;;;;;;5.30;0.85;;;13.80;99.90;;;;;;4970222;28;20034;-51
2023/10/31 10:41:35;;;;;;;1.60;0.70;;;13.90;99.90;;;;;;4970918;28;20113;-52
2023/10/31 10:44:13;;;;;;;2.90;1.23;;;13.90;99.90;;;;;;4972704;28;20019;-51
2023/10/31 10:46:40;;;;;;;5.38;1.40;;;14.10;99.90;;;;;;4972155;28;20051;-51
2023/10/31 10:49:07;;;;;;;1.13;0.57;;;14.30;99.90;;;;;;4961997;28;20039;-50
2023/10/31 10:51:35;;;;;;;4.03;0.80;;;14.50;99.90;;;;;;4967475;28;20023;-48
2023/10/31 10:54:31;;;;;;;5.95;0.90;;;14.70;99.90;;;;;;4972034;28;20027;-50
2023/10/31 10:57:09;;;;;;;2.25;0.63;;;14.70;99.90;;;;;;4971274;28;20130;-52
2023/10/31 10:59:52;;;;;;;0.75;0.60;;;14.70;99.90;;;;;;4971756;28;20023;-49
2023/10/31 11:02:18;;;;;;;1.65;0.73;;;14.60;99.90;;;;;;4971741;28;20026;-50
2023/10/31 11:04:44;;;;;;;7.47;0.73;;;14.50;99.90;;;;;;4970619;28;20071;-52
2023/10/31 11:07:10;;;;;;;1.08;0.68;;;14.50;99.90;;;;;;4969756;28;20122;-54
2023/10/31 11:09:37;;;;;;;1.40;0.85;;;14.50;99.90;;;;;;4971443;28;20572;-50
2023/10/31 11:12:04;;;;;;;2.55;0.77;;;14.30;99.90;;;;;;4971128;28;20073;-54
2023/10/31 11:14:31;;;;;;;3.33;0.70;;;14.30;99.90;;;;;;4969910;28;20038;-53
2023/10/31 11:17:01;;;;;;;2.85;0.88;;;14.30;99.90;;;;;;4969773;28;20137;-51
2023/10/31 11:19:28;;;;;;;1.63;0.68;;;14.40;99.90;;;;;;4969856;28;20476;-53
2023/10/31 11:21:58;;;;;;;3.30;0.70;;;14.50;99.90;;;;;;4967631;28;20039;-49
2023/10/31 11:24:25;;;;;;;5.50;0.70;;;14.60;99.90;;;;;;4968680;28;20502;-51
2023/10/31 11:26:52;;;;;;;3.30;0.60;;;14.70;99.90;;;;;;4970123;28;20452;-54
2023/10/31 11:29:18;;;;;;;4.38;0.70;;;14.60;99.90;;;;;;4971440;28;20034;-52
2023/10/31 11:31:43;;;;;;;3.35;0.80;;;14.60;99.90;;;;;;4971346;28;20486;-53
2023/10/31 11:34:09;;;;;;;1.45;0.65;;;14.50;99.90;;;;;;4971577;28;20027;-52
2023/10/31 11:36:36;;;;;;;4.18;1.10;;;14.50;99.90;;;;;;4971337;28;20098;-51
2023/10/31 11:39:34;;;;;;;5.53;1.05;;;14.40;99.90;;;;;;4970970;28;20025;-48
2023/10/31 11:42:00;;;;;;;4.72;0.93;;;14.40;99.90;;;;;;4991301;28;20158;-52
2023/10/31 11:44:26;;;;;;;3.05;0.75;;;14.40;99.90;;;;;;4971139;28;20098;-49
2023/10/31 11:46:52;;;;;;;4.70;0.88;;;14.30;99.90;;;;;;4970951;28;20102;-54
2023/10/31 11:49:38;;;;;;;4.97;1.02;;;14.30;99.90;;;;;;4970710;28;20086;-51
2023/10/31 11:52:15;;;;;;;6.75;1.23;;;14.30;99.90;;;;;;4970846;28;20057;-49
2023/10/31 11:54:40;;;;;;;3.92;0.80;;;14.40;99.90;;;;;;4969694;28;20406;-50
2023/10/31 11:57:06;;;;;;;4.13;1.27;;;14.40;99.90;;;;;;4970057;28;20482;-54
2023/10/31 11:59:38;;;;;;;5.10;1.48;;;14.40;99.90;;;;;;4968311;28;20576;-46
2023/10/31 12:02:18;;;;;;;2.70;1.20;;;14.40;99.90;;;;;;4970337;28;20106;-51
2023/10/31 12:04:44;;;;;;;4.13;1.25;;;14.50;99.90;;;;;;4971679;28;20566;-48
2023/10/31 12:07:10;;;;;;;2.50;1.10;;;14.60;99.90;;;;;;4971139;28;20514;-45
2023/10/31 12:09:48;;;;;;;6.03;1.13;;;14.70;99.90;;;;;;4970846;28;20152;-53
2023/10/31 12:12:15;;;;;;;3.55;1.25;;;14.60;99.90;;;;;;4970109;28;20039;-49
2023/10/31 12:14:40;;;;;;;3.08;0.98;;;14.70;99.90;;;;;;4970720;28;20621;-50
2023/10/31 12:17:07;;;;;;;7.15;1.70;;;14.60;99.90;;;;;;4970326;28;20080;-51
2023/10/31 12:19:33;;;;;;;2.97;1.30;;;14.60;99.90;;;;;;4970959;28;20022;-49
2023/10/31 12:21:58;;;;;;;21.42;13.02;;;14.60;99.90;;;;;;4970304;28;20037;-41
2023/10/31 12:24:24;;;;;;;6.10;2.03;;;14.60;99.90;;;;;;4970060;28;20113;-39
2023/10/31 12:26:51;;;;;;;5.03;1.60;;;14.70;99.90;;;;;;4969505;28;20039;-43
2023/10/31 12:29:18;;;;;;;2.80;0.90;;;14.70;99.90;;;;;;4969783;28;20035;-41
2023/10/31 12:31:45;;;;;;;4.90;1.10;;;14.70;99.90;;;;;;4969731;28;20023;-42
2023/10/31 12:34:11;;;;;;;3.95;1.17;;;14.70;99.90;;;;;;4969354;28;20034;-49
2023/10/31 12:36:38;;;;;;;4.15;1.50;;;14.70;99.90;;;;;;4969029;28;20038;-45
2023/10/31 12:39:13;;;;;;;5.15;1.00;;;14.70;99.90;;;;;;4969492;28;20112;-42
2023/10/31 12:41:41;;;;;;;10.73;2.05;;;14.80;99.90;;;;;;4969534;28;20482;-43